Terminal Aerodrome Forecast
Issued by NWS

Home | Current Version | Previous Version | Text Only | Print | Product List | Glossary On
Versions: 1 2 3 4 5 6 7 8 9 10 11 12 13 14 15 16 17 18 19 20 21 22 23 24 25 26 27 28 29 30 31 32 33 34 35
482
FTUS43 KGLD 301720
TAFMCK
TAF
KMCK 301720Z 3018/3118 18008KT P6SM SKC
     FM302100 18012KT P6SM SCT060
     FM310000 19010KT P6SM VCTS SCT050CB BKN120
     FM310300 26007KT 3SM -TSRA BKN030CB
     FM310600 34008KT P6SM VCTS SCT035CB BKN100
     FM310900 35008KT P6SM VCSH BKN050
     FM311200 01012KT P6SM SCT080=

USA.gov is the U.S. government's official web portal to all federal, state and local government web resources and services.